sensor_id;sensor_type;location;lat;lon;timestamp;temperature;humidity
75010;DHT22;63564;46.840;18.336;2023-05-16T00:02:12;13.80;96.54
75010;DHT22;63564;46.840;18.336;2023-05-16T00:05:13;13.69;96.69
75010;DHT22;63564;46.840;18.336;2023-05-16T00:08:13;13.67;96.87
75010;DHT22;63564;46.840;18.336;2023-05-16T00:11:16;13.67;97.11
75010;DHT22;63564;46.840;18.336;2023-05-16T00:14:16;13.63;97.32
75010;DHT22;63564;46.840;18.336;2023-05-16T00:17:19;13.66;97.16
75010;DHT22;63564;46.840;18.336;2023-05-16T00:20:19;13.69;97.10
75010;DHT22;63564;46.840;18.336;2023-05-16T00:23:22;13.71;97.17
75010;DHT22;63564;46.840;18.336;2023-05-16T00:26:22;13.60;97.29
75010;DHT22;63564;46.840;18.336;2023-05-16T00:29:23;13.63;97.49
75010;DHT22;63564;46.840;18.336;2023-05-16T00:32:23;13.64;97.09
75010;DHT22;63564;46.840;18.336;2023-05-16T00:35:24;13.57;97.27
75010;DHT22;63564;46.840;18.336;2023-05-16T00:38:24;13.63;97.45
75010;DHT22;63564;46.840;18.336;2023-05-16T00:41:25;13.62;97.30
75010;DHT22;63564;46.840;18.336;2023-05-16T00:44:26;13.57;97.32
75010;DHT22;63564;46.840;18.336;2023-05-16T00:47:26;13.57;97.28
75010;DHT22;63564;46.840;18.336;2023-05-16T00:50:27;13.46;97.17
75010;DHT22;63564;46.840;18.336;2023-05-16T00:53:27;13.40;97.47
75010;DHT22;63564;46.840;18.336;2023-05-16T00:56:27;13.38;97.15
75010;DHT22;63564;46.840;18.336;2023-05-16T00:59:28;13.36;96.83
75010;DHT22;63564;46.840;18.336;2023-05-16T01:02:29;13.33;96.94
75010;DHT22;63564;46.840;18.336;2023-05-16T01:05:30;13.29;96.81
75010;DHT22;63564;46.840;18.336;2023-05-16T01:08:30;13.23;96.70
75010;DHT22;63564;46.840;18.336;2023-05-16T01:15:24;13.19;97.01
75010;DHT22;63564;46.840;18.336;2023-05-16T01:18:46;13.19;96.99
75010;DHT22;63564;46.840;18.336;2023-05-16T01:29:04;13.23;96.58
75010;DHT22;63564;46.840;18.336;2023-05-16T01:32:05;13.25;96.25
75010;DHT22;63564;46.840;18.336;2023-05-16T01:35:07;13.25;95.95
75010;DHT22;63564;46.840;18.336;2023-05-16T01:38:18;13.22;96.00
75010;DHT22;63564;46.840;18.336;2023-05-16T01:44:44;13.20;95.77
75010;DHT22;63564;46.840;18.336;2023-05-16T01:47:58;13.16;95.96
75010;DHT22;63564;46.840;18.336;2023-05-16T01:51:02;13.14;96.03
75010;DHT22;63564;46.840;18.336;2023-05-16T01:54:05;13.16;96.22
75010;DHT22;63564;46.840;18.336;2023-05-16T01:57:09;13.14;95.51
75010;DHT22;63564;46.840;18.336;2023-05-16T02:00:12;13.14;95.43
75010;DHT22;63564;46.840;18.336;2023-05-16T02:03:12;13.14;95.42
75010;DHT22;63564;46.840;18.336;2023-05-16T02:06:13;13.18;94.84
75010;DHT22;63564;46.840;18.336;2023-05-16T02:09:13;13.14;94.95
75010;DHT22;63564;46.840;18.336;2023-05-16T02:12:13;13.16;95.48
75010;DHT22;63564;46.840;18.336;2023-05-16T02:15:14;13.11;94.63
75010;DHT22;63564;46.840;18.336;2023-05-16T02:18:14;13.08;94.31
75010;DHT22;63564;46.840;18.336;2023-05-16T02:21:15;13.06;94.13
75010;DHT22;63564;46.840;18.336;2023-05-16T02:24:16;13.05;94.00
75010;DHT22;63564;46.840;18.336;2023-05-16T02:27:16;13.01;93.79
75010;DHT22;63564;46.840;18.336;2023-05-16T02:30:17;12.99;93.68
75010;DHT22;63564;46.840;18.336;2023-05-16T02:33:17;13.09;93.53
75010;DHT22;63564;46.840;18.336;2023-05-16T02:36:17;12.98;94.18
75010;DHT22;63564;46.840;18.336;2023-05-16T02:39:18;12.94;94.40
75010;DHT22;63564;46.840;18.336;2023-05-16T02:42:18;12.98;94.24
75010;DHT22;63564;46.840;18.336;2023-05-16T02:45:19;12.94;94.57
75010;DHT22;63564;46.840;18.336;2023-05-16T02:48:19;12.94;94.52
75010;DHT22;63564;46.840;18.336;2023-05-16T02:51:21;12.87;94.94
75010;DHT22;63564;46.840;18.336;2023-05-16T02:54:22;12.84;94.74
75010;DHT22;63564;46.840;18.336;2023-05-16T02:57:22;12.77;94.76
75010;DHT22;63564;46.840;18.336;2023-05-16T03:00:22;12.73;95.34
75010;DHT22;63564;46.840;18.336;2023-05-16T03:03:23;12.68;95.62
75010;DHT22;63564;46.840;18.336;2023-05-16T03:06:23;12.65;95.72
75010;DHT22;63564;46.840;18.336;2023-05-16T03:09:23;12.60;95.90
75010;DHT22;63564;46.840;18.336;2023-05-16T03:12:24;12.60;95.76
75010;DHT22;63564;46.840;18.336;2023-05-16T03:15:24;12.56;95.76
75010;DHT22;63564;46.840;18.336;2023-05-16T03:18:25;12.57;95.62
75010;DHT22;63564;46.840;18.336;2023-05-16T03:21:26;12.59;95.57
75010;DHT22;63564;46.840;18.336;2023-05-16T03:24:26;12.61;95.18
75010;DHT22;63564;46.840;18.336;2023-05-16T03:27:27;12.60;95.17
75010;DHT22;63564;46.840;18.336;2023-05-16T03:30:27;12.56;95.17
75010;DHT22;63564;46.840;18.336;2023-05-16T03:33:27;12.60;94.98
75010;DHT22;63564;46.840;18.336;2023-05-16T03:36:28;12.64;94.82
75010;DHT22;63564;46.840;18.336;2023-05-16T03:39:28;12.74;94.79
75010;DHT22;63564;46.840;18.336;2023-05-16T03:42:29;12.68;94.91
75010;DHT22;63564;46.840;18.336;2023-05-16T03:45:30;12.78;95.06
75010;DHT22;63564;46.840;18.336;2023-05-16T03:48:31;12.74;94.55
75010;DHT22;63564;46.840;18.336;2023-05-16T03:51:31;12.77;94.51
75010;DHT22;63564;46.840;18.336;2023-05-16T03:54:32;12.81;94.69
75010;DHT22;63564;46.840;18.336;2023-05-16T03:57:32;12.81;94.93
75010;DHT22;63564;46.840;18.336;2023-05-16T04:00:33;12.81;94.95
75010;DHT22;63564;46.840;18.336;2023-05-16T04:03:35;12.78;95.10
75010;DHT22;63564;46.840;18.336;2023-05-16T04:06:37;12.81;94.93
75010;DHT22;63564;46.840;18.336;2023-05-16T04:09:37;12.81;94.94
75010;DHT22;63564;46.840;18.336;2023-05-16T04:12:38;12.92;95.30
75010;DHT22;63564;46.840;18.336;2023-05-16T04:15:38;12.85;94.80
75010;DHT22;63564;46.840;18.336;2023-05-16T04:18:39;12.85;95.02
75010;DHT22;63564;46.840;18.336;2023-05-16T04:21:40;12.84;95.56
75010;DHT22;63564;46.840;18.336;2023-05-16T04:24:41;12.83;95.53
75010;DHT22;63564;46.840;18.336;2023-05-16T04:27:41;12.83;95.62
75010;DHT22;63564;46.840;18.336;2023-05-16T04:30:42;12.88;96.32
75010;DHT22;63564;46.840;18.336;2023-05-16T04:33:42;12.85;95.49
75010;DHT22;63564;46.840;18.336;2023-05-16T04:36:42;13.04;95.05
75010;DHT22;63564;46.840;18.336;2023-05-16T04:39:43;12.98;95.41
75010;DHT22;63564;46.840;18.336;2023-05-16T04:42:43;12.99;95.19
75010;DHT22;63564;46.840;18.336;2023-05-16T04:45:44;12.89;95.05
75010;DHT22;63564;46.840;18.336;2023-05-16T04:48:44;12.84;95.12
75010;DHT22;63564;46.840;18.336;2023-05-16T04:51:46;12.74;95.44
75010;DHT22;63564;46.840;18.336;2023-05-16T04:54:49;12.73;95.99
75010;DHT22;63564;46.840;18.336;2023-05-16T04:57:50;12.76;95.76
75010;DHT22;63564;46.840;18.336;2023-05-16T05:00:51;12.77;95.91
75010;DHT22;63564;46.840;18.336;2023-05-16T05:03:51;12.77;95.33
75010;DHT22;63564;46.840;18.336;2023-05-16T05:06:52;12.83;95.49
75010;DHT22;63564;46.840;18.336;2023-05-16T05:09:52;12.87;94.85
75010;DHT22;63564;46.840;18.336;2023-05-16T05:12:55;12.92;94.28
75010;DHT22;63564;46.840;18.336;2023-05-16T05:15:55;12.88;94.64
75010;DHT22;63564;46.840;18.336;2023-05-16T05:18:55;12.91;94.59
75010;DHT22;63564;46.840;18.336;2023-05-16T05:21:56;12.88;94.36
75010;DHT22;63564;46.840;18.336;2023-05-16T05:24:56;12.91;94.73
75010;DHT22;63564;46.840;18.336;2023-05-16T05:27:57;12.91;95.02
75010;DHT22;63564;46.840;18.336;2023-05-16T05:30:57;12.89;94.78
75010;DHT22;63564;46.840;18.336;2023-05-16T05:33:58;12.91;94.98
75010;DHT22;63564;46.840;18.336;2023-05-16T05:36:58;12.91;94.83
75010;DHT22;63564;46.840;18.336;2023-05-16T05:39:59;12.99;94.84
75010;DHT22;63564;46.840;18.336;2023-05-16T05:42:59;13.04;95.01
75010;DHT22;63564;46.840;18.336;2023-05-16T05:46:00;12.97;94.68
75010;DHT22;63564;46.840;18.336;2023-05-16T05:49:00;13.04;94.91
75010;DHT22;63564;46.840;18.336;2023-05-16T05:52:01;12.99;94.74
75010;DHT22;63564;46.840;18.336;2023-05-16T05:55:01;12.92;94.86
75010;DHT22;63564;46.840;18.336;2023-05-16T05:58:01;12.99;95.64
75010;DHT22;63564;46.840;18.336;2023-05-16T06:01:02;13.04;94.69
75010;DHT22;63564;46.840;18.336;2023-05-16T06:04:02;13.04;94.88
75010;DHT22;63564;46.840;18.336;2023-05-16T06:07:03;13.09;95.27
75010;DHT22;63564;46.840;18.336;2023-05-16T06:10:04;13.08;95.42
75010;DHT22;63564;46.840;18.336;2023-05-16T06:13:05;13.09;95.96
75010;DHT22;63564;46.840;18.336;2023-05-16T06:16:05;13.09;95.71
75010;DHT22;63564;46.840;18.336;2023-05-16T06:19:06;13.11;96.16
75010;DHT22;63564;46.840;18.336;2023-05-16T06:22:07;13.04;96.54
75010;DHT22;63564;46.840;18.336;2023-05-16T06:25:07;13.04;96.73
75010;DHT22;63564;46.840;18.336;2023-05-16T06:28:08;13.01;97.16
75010;DHT22;63564;46.840;18.336;2023-05-16T06:31:08;13.15;97.38
75010;DHT22;63564;46.840;18.336;2023-05-16T06:34:09;13.09;97.55
75010;DHT22;63564;46.840;18.336;2023-05-16T06:37:10;13.11;97.42
75010;DHT22;63564;46.840;18.336;2023-05-16T06:40:11;13.18;97.82
75010;DHT22;63564;46.840;18.336;2023-05-16T06:43:11;13.16;97.95
75010;DHT22;63564;46.840;18.336;2023-05-16T06:46:12;13.23;98.55
75010;DHT22;63564;46.840;18.336;2023-05-16T06:49:12;13.50;98.40
75010;DHT22;63564;46.840;18.336;2023-05-16T06:52:13;13.36;98.00
75010;DHT22;63564;46.840;18.336;2023-05-16T06:55:13;13.32;98.10
75010;DHT22;63564;46.840;18.336;2023-05-16T06:58:14;13.23;98.72
75010;DHT22;63564;46.840;18.336;2023-05-16T07:01:15;13.22;99.28
75010;DHT22;63564;46.840;18.336;2023-05-16T07:04:15;13.36;99.87
75010;DHT22;63564;46.840;18.336;2023-05-16T07:07:16;13.25;99.63
75010;DHT22;63564;46.840;18.336;2023-05-16T07:10:16;13.33;99.47
75010;DHT22;63564;46.840;18.336;2023-05-16T07:13:17;13.44;99.35
75010;DHT22;63564;46.840;18.336;2023-05-16T07:16:17;13.56;99.46
75010;DHT22;63564;46.840;18.336;2023-05-16T07:19:18;13.62;99.38
75010;DHT22;63564;46.840;18.336;2023-05-16T07:22:18;13.67;99.22
75010;DHT22;63564;46.840;18.336;2023-05-16T07:25:18;13.63;99.38
75010;DHT22;63564;46.840;18.336;2023-05-16T07:28:19;13.66;99.39
75010;DHT22;63564;46.840;18.336;2023-05-16T07:31:21;13.67;99.39
75010;DHT22;63564;46.840;18.336;2023-05-16T07:34:21;13.70;99.49
75010;DHT22;63564;46.840;18.336;2023-05-16T07:37:22;13.71;99.48
75010;DHT22;63564;46.840;18.336;2023-05-16T07:40:22;13.75;99.16
75010;DHT22;63564;46.840;18.336;2023-05-16T07:43:27;13.77;99.39
75010;DHT22;63564;46.840;18.336;2023-05-16T07:46:28;13.80;99.44
75010;DHT22;63564;46.840;18.336;2023-05-16T07:49:28;13.87;99.29
75010;DHT22;63564;46.840;18.336;2023-05-16T07:52:29;13.81;99.55
75010;DHT22;63564;46.840;18.336;2023-05-16T07:55:29;13.81;99.61
75010;DHT22;63564;46.840;18.336;2023-05-16T07:58:30;13.88;99.47
75010;DHT22;63564;46.840;18.336;2023-05-16T08:01:30;14.01;99.26
75010;DHT22;63564;46.840;18.336;2023-05-16T08:04:31;13.92;99.14
75010;DHT22;63564;46.840;18.336;2023-05-16T08:07:31;13.94;99.27
75010;DHT22;63564;46.840;18.336;2023-05-16T08:10:31;13.95;99.27
75010;DHT22;63564;46.840;18.336;2023-05-16T08:13:32;13.98;99.19
75010;DHT22;63564;46.840;18.336;2023-05-16T08:16:32;14.04;99.15
75010;DHT22;63564;46.840;18.336;2023-05-16T08:19:34;14.05;99.21
75010;DHT22;63564;46.840;18.336;2023-05-16T08:22:34;14.11;99.10
75010;DHT22;63564;46.840;18.336;2023-05-16T08:25:35;14.07;99.39
75010;DHT22;63564;46.840;18.336;2023-05-16T08:28:35;14.05;99.50
75010;DHT22;63564;46.840;18.336;2023-05-16T08:31:35;14.02;99.45
75010;DHT22;63564;46.840;18.336;2023-05-16T08:34:36;14.12;99.30
75010;DHT22;63564;46.840;18.336;2023-05-16T08:37:36;14.14;99.29
75010;DHT22;63564;46.840;18.336;2023-05-16T08:40:37;14.15;99.17
75010;DHT22;63564;46.840;18.336;2023-05-16T08:43:38;14.15;99.49
75010;DHT22;63564;46.840;18.336;2023-05-16T08:46:40;14.19;99.41
75010;DHT22;63564;46.840;18.336;2023-05-16T08:49:40;14.26;99.26
75010;DHT22;63564;46.840;18.336;2023-05-16T08:52:43;14.28;99.23
75010;DHT22;63564;46.840;18.336;2023-05-16T08:55:45;14.30;99.24
75010;DHT22;63564;46.840;18.336;2023-05-16T08:58:49;14.38;99.21
75010;DHT22;63564;46.840;18.336;2023-05-16T09:01:50;14.33;99.40
75010;DHT22;63564;46.840;18.336;2023-05-16T09:04:50;14.28;99.36
75010;DHT22;63564;46.840;18.336;2023-05-16T09:07:51;14.29;99.52
75010;DHT22;63564;46.840;18.336;2023-05-16T09:10:52;14.26;99.86
75010;DHT22;63564;46.840;18.336;2023-05-16T09:13:52;14.22;99.78
75010;DHT22;63564;46.840;18.336;2023-05-16T09:17:05;14.33;99.79
75010;DHT22;63564;46.840;18.336;2023-05-16T09:23:10;14.36;99.82
75010;DHT22;63564;46.840;18.336;2023-05-16T09:26:11;14.39;99.61
75010;DHT22;63564;46.840;18.336;2023-05-16T09:29:12;14.40;99.99
75010;DHT22;63564;46.840;18.336;2023-05-16T09:32:14;14.45;99.83
75010;DHT22;63564;46.840;18.336;2023-05-16T09:35:15;14.42;99.99
75010;DHT22;63564;46.840;18.336;2023-05-16T09:38:16;14.46;99.99
75010;DHT22;63564;46.840;18.336;2023-05-16T09:41:17;14.50;99.94
75010;DHT22;63564;46.840;18.336;2023-05-16T09:44:17;14.53;99.97
75010;DHT22;63564;46.840;18.336;2023-05-16T09:47:19;14.67;99.87
75010;DHT22;63564;46.840;18.336;2023-05-16T09:50:19;14.63;99.93
75010;DHT22;63564;46.840;18.336;2023-05-16T09:53:27;14.59;99.99
75010;DHT22;63564;46.840;18.336;2023-05-16T09:56:28;14.66;99.99
75010;DHT22;63564;46.840;18.336;2023-05-16T09:59:30;14.72;99.99
75010;DHT22;63564;46.840;18.336;2023-05-16T10:02:36;14.86;99.85
75010;DHT22;63564;46.840;18.336;2023-05-16T10:05:37;14.95;99.81
75010;DHT22;63564;46.840;18.336;2023-05-16T10:08:41;14.88;99.77
75010;DHT22;63564;46.840;18.336;2023-05-16T10:11:41;14.93;99.66
75010;DHT22;63564;46.840;18.336;2023-05-16T10:14:43;14.91;99.81
75010;DHT22;63564;46.840;18.336;2023-05-16T10:17:49;15.00;99.79
75010;DHT22;63564;46.840;18.336;2023-05-16T10:20:52;14.93;99.81
75010;DHT22;63564;46.840;18.336;2023-05-16T10:23:56;14.90;99.86
75010;DHT22;63564;46.840;18.336;2023-05-16T10:26:57;15.00;99.72
75010;DHT22;63564;46.840;18.336;2023-05-16T10:29:58;14.93;99.79
75010;DHT22;63564;46.840;18.336;2023-05-16T10:33:01;15.00;99.54
75010;DHT22;63564;46.840;18.336;2023-05-16T10:36:02;15.01;99.46
75010;DHT22;63564;46.840;18.336;2023-05-16T10:39:04;15.17;99.24
75010;DHT22;63564;46.840;18.336;2023-05-16T10:42:05;15.27;98.80
75010;DHT22;63564;46.840;18.336;2023-05-16T10:45:19;15.34;98.69
75010;DHT22;63564;46.840;18.336;2023-05-16T10:48:27;15.42;98.04
75010;DHT22;63564;46.840;18.336;2023-05-16T10:54:39;15.46;98.09
75010;DHT22;63564;46.840;18.336;2023-05-16T10:57:43;15.52;97.97
75010;DHT22;63564;46.840;18.336;2023-05-16T11:00:43;15.60;97.81
75010;DHT22;63564;46.840;18.336;2023-05-16T11:07:00;15.74;97.36
75010;DHT22;63564;46.840;18.336;2023-05-16T11:13:07;15.91;96.50
75010;DHT22;63564;46.840;18.336;2023-05-16T11:16:27;15.90;96.69
75010;DHT22;63564;46.840;18.336;2023-05-16T11:19:48;15.94;96.97
75010;DHT22;63564;46.840;18.336;2023-05-16T11:22:49;16.10;96.33
75010;DHT22;63564;46.840;18.336;2023-05-16T11:25:56;16.24;96.57
75010;DHT22;63564;46.840;18.336;2023-05-16T11:28:57;15.99;96.41
75010;DHT22;63564;46.840;18.336;2023-05-16T11:32:00;16.04;96.44
75010;DHT22;63564;46.840;18.336;2023-05-16T11:35:01;16.07;96.52
75010;DHT22;63564;46.840;18.336;2023-05-16T11:38:01;16.06;96.77
75010;DHT22;63564;46.840;18.336;2023-05-16T11:41:06;16.10;96.98
75010;DHT22;63564;46.840;18.336;2023-05-16T11:44:06;16.08;96.68
75010;DHT22;63564;46.840;18.336;2023-05-16T11:47:07;16.13;96.72
75010;DHT22;63564;46.840;18.336;2023-05-16T11:53:15;16.11;97.00
75010;DHT22;63564;46.840;18.336;2023-05-16T11:56:16;16.01;97.21
75010;DHT22;63564;46.840;18.336;2023-05-16T11:59:17;16.03;97.18
75010;DHT22;63564;46.840;18.336;2023-05-16T12:02:17;15.99;96.45
75010;DHT22;63564;46.840;18.336;2023-05-16T12:05:19;15.99;96.90
75010;DHT22;63564;46.840;18.336;2023-05-16T12:08:20;16.08;96.88
75010;DHT22;63564;46.840;18.336;2023-05-16T12:11:24;16.07;96.86
75010;DHT22;63564;46.840;18.336;2023-05-16T12:14:25;16.01;96.69
75010;DHT22;63564;46.840;18.336;2023-05-16T12:17:26;16.04;97.11
75010;DHT22;63564;46.840;18.336;2023-05-16T12:20:27;15.94;97.41
75010;DHT22;63564;46.840;18.336;2023-05-16T12:23:27;16.04;97.28
75010;DHT22;63564;46.840;18.336;2023-05-16T12:26:31;16.17;96.93
75010;DHT22;63564;46.840;18.336;2023-05-16T12:29:32;16.16;96.73
75010;DHT22;63564;46.840;18.336;2023-05-16T12:32:36;16.27;96.94
75010;DHT22;63564;46.840;18.336;2023-05-16T12:35:38;16.32;96.52
75010;DHT22;63564;46.840;18.336;2023-05-16T12:38:38;16.29;96.47
75010;DHT22;63564;46.840;18.336;2023-05-16T12:41:41;16.42;95.99
75010;DHT22;63564;46.840;18.336;2023-05-16T12:44:44;16.51;95.48
75010;DHT22;63564;46.840;18.336;2023-05-16T12:47:45;16.52;95.73
75010;DHT22;63564;46.840;18.336;2023-05-16T12:50:46;16.56;96.30
75010;DHT22;63564;46.840;18.336;2023-05-16T12:53:48;16.54;96.34
75010;DHT22;63564;46.840;18.336;2023-05-16T12:56:48;16.56;96.12
75010;DHT22;63564;46.840;18.336;2023-05-16T12:59:49;16.56;95.90
75010;DHT22;63564;46.840;18.336;2023-05-16T13:02:49;16.71;95.56
75010;DHT22;63564;46.840;18.336;2023-05-16T13:05:49;16.73;95.26
75010;DHT22;63564;46.840;18.336;2023-05-16T13:08:50;16.76;95.17
75010;DHT22;63564;46.840;18.336;2023-05-16T13:11:51;16.80;95.18
75010;DHT22;63564;46.840;18.336;2023-05-16T13:14:52;16.72;95.59
75010;DHT22;63564;46.840;18.336;2023-05-16T13:17:52;16.59;95.67
75010;DHT22;63564;46.840;18.336;2023-05-16T13:20:53;16.59;96.06
75010;DHT22;63564;46.840;18.336;2023-05-16T13:23:53;16.65;95.84
75010;DHT22;63564;46.840;18.336;2023-05-16T13:26:54;16.68;95.75
75010;DHT22;63564;46.840;18.336;2023-05-16T13:29:54;16.80;95.59
75010;DHT22;63564;46.840;18.336;2023-05-16T13:32:55;16.92;95.40
75010;DHT22;63564;46.840;18.336;2023-05-16T13:35:55;16.80;95.73
75010;DHT22;63564;46.840;18.336;2023-05-16T13:38:56;16.82;96.26
75010;DHT22;63564;46.840;18.336;2023-05-16T13:41:57;16.76;96.51
75010;DHT22;63564;46.840;18.336;2023-05-16T13:44:59;16.76;96.58
75010;DHT22;63564;46.840;18.336;2023-05-16T13:47:59;16.65;96.64
75010;DHT22;63564;46.840;18.336;2023-05-16T13:51:00;16.59;96.97
75010;DHT22;63564;46.840;18.336;2023-05-16T13:54:01;16.52;97.05
75010;DHT22;63564;46.840;18.336;2023-05-16T13:57:01;16.62;96.99
75010;DHT22;63564;46.840;18.336;2023-05-16T14:00:03;16.58;97.22
75010;DHT22;63564;46.840;18.336;2023-05-16T14:03:11;16.89;96.72
75010;DHT22;63564;46.840;18.336;2023-05-16T14:06:11;16.96;96.46
75010;DHT22;63564;46.840;18.336;2023-05-16T14:09:12;17.06;95.92
75010;DHT22;63564;46.840;18.336;2023-05-16T14:12:14;17.07;96.23
75010;DHT22;63564;46.840;18.336;2023-05-16T14:15:14;17.07;95.94
75010;DHT22;63564;46.840;18.336;2023-05-16T14:18:15;17.14;96.14
75010;DHT22;63564;46.840;18.336;2023-05-16T14:21:15;17.19;95.89
75010;DHT22;63564;46.840;18.336;2023-05-16T14:24:16;17.14;95.97
75010;DHT22;63564;46.840;18.336;2023-05-16T14:27:16;17.02;96.44
75010;DHT22;63564;46.840;18.336;2023-05-16T14:30:16;16.94;96.67
75010;DHT22;63564;46.840;18.336;2023-05-16T14:33:17;16.94;96.86
75010;DHT22;63564;46.840;18.336;2023-05-16T14:36:17;16.93;97.06
75010;DHT22;63564;46.840;18.336;2023-05-16T14:39:17;16.93;96.60
75010;DHT22;63564;46.840;18.336;2023-05-16T14:42:18;16.96;96.96
75010;DHT22;63564;46.840;18.336;2023-05-16T14:45:18;16.97;97.00
75010;DHT22;63564;46.840;18.336;2023-05-16T14:48:19;16.99;97.03
75010;DHT22;63564;46.840;18.336;2023-05-16T14:51:19;16.99;96.88
75010;DHT22;63564;46.840;18.336;2023-05-16T14:54:19;17.04;96.83
75010;DHT22;63564;46.840;18.336;2023-05-16T14:57:20;17.04;96.33
75010;DHT22;63564;46.840;18.336;2023-05-16T15:00:22;16.96;96.49
75010;DHT22;63564;46.840;18.336;2023-05-16T15:03:23;16.97;96.49
75010;DHT22;63564;46.840;18.336;2023-05-16T15:06:24;16.96;96.73
75010;DHT22;63564;46.840;18.336;2023-05-16T15:09:24;16.92;97.06
75010;DHT22;63564;46.840;18.336;2023-05-16T15:12:25;16.86;97.19
75010;DHT22;63564;46.840;18.336;2023-05-16T15:15:27;16.87;97.43
75010;DHT22;63564;46.840;18.336;2023-05-16T15:18:27;16.82;97.39
75010;DHT22;63564;46.840;18.336;2023-05-16T15:21:28;16.84;97.31
75010;DHT22;63564;46.840;18.336;2023-05-16T15:24:28;16.79;97.40
75010;DHT22;63564;46.840;18.336;2023-05-16T15:27:28;16.77;97.50
75010;DHT22;63564;46.840;18.336;2023-05-16T15:30:29;16.73;97.47
75010;DHT22;63564;46.840;18.336;2023-05-16T15:33:29;16.72;97.53
75010;DHT22;63564;46.840;18.336;2023-05-16T15:36:30;16.83;97.33
75010;DHT22;63564;46.840;18.336;2023-05-16T15:39:30;16.99;96.67
75010;DHT22;63564;46.840;18.336;2023-05-16T15:42:31;16.77;97.42
75010;DHT22;63564;46.840;18.336;2023-05-16T15:45:31;16.84;97.53
75010;DHT22;63564;46.840;18.336;2023-05-16T15:48:32;16.96;97.08
75010;DHT22;63564;46.840;18.336;2023-05-16T15:51:32;16.92;97.44
75010;DHT22;63564;46.840;18.336;2023-05-16T15:54:33;16.96;97.37
75010;DHT22;63564;46.840;18.336;2023-05-16T15:57:33;16.92;97.44
75010;DHT22;63564;46.840;18.336;2023-05-16T16:00:33;16.87;97.87
75010;DHT22;63564;46.840;18.336;2023-05-16T16:03:34;16.77;98.14
75010;DHT22;63564;46.840;18.336;2023-05-16T16:06:34;16.93;97.58
75010;DHT22;63564;46.840;18.336;2023-05-16T16:09:35;16.90;97.15
75010;DHT22;63564;46.840;18.336;2023-05-16T16:12:35;16.86;97.11
75010;DHT22;63564;46.840;18.336;2023-05-16T16:15:37;16.87;97.07
75010;DHT22;63564;46.840;18.336;2023-05-16T16:18:37;16.86;96.90
75010;DHT22;63564;46.840;18.336;2023-05-16T16:21:37;16.80;97.07
75010;DHT22;63564;46.840;18.336;2023-05-16T16:24:38;16.76;97.18
75010;DHT22;63564;46.840;18.336;2023-05-16T16:27:38;16.82;97.33
75010;DHT22;63564;46.840;18.336;2023-05-16T16:30:39;16.73;96.93
75010;DHT22;63564;46.840;18.336;2023-05-16T16:33:39;16.72;97.11
75010;DHT22;63564;46.840;18.336;2023-05-16T16:36:41;16.73;97.19
75010;DHT22;63564;46.840;18.336;2023-05-16T16:39:41;16.68;97.23
75010;DHT22;63564;46.840;18.336;2023-05-16T16:42:42;16.64;97.62
75010;DHT22;63564;46.840;18.336;2023-05-16T16:45:42;16.72;97.63
75010;DHT22;63564;46.840;18.336;2023-05-16T16:48:43;16.68;97.68
75010;DHT22;63564;46.840;18.336;2023-05-16T16:51:43;16.59;97.68
75010;DHT22;63564;46.840;18.336;2023-05-16T16:54:44;16.56;97.87
75010;DHT22;63564;46.840;18.336;2023-05-16T16:57:45;16.51;97.99
75010;DHT22;63564;46.840;18.336;2023-05-16T17:00:45;16.38;98.16
75010;DHT22;63564;46.840;18.336;2023-05-16T17:03:46;16.40;98.20
75010;DHT22;63564;46.840;18.336;2023-05-16T17:06:46;16.32;98.60
75010;DHT22;63564;46.840;18.336;2023-05-16T17:09:47;16.31;98.71
75010;DHT22;63564;46.840;18.336;2023-05-16T17:12:47;16.29;98.57
75010;DHT22;63564;46.840;18.336;2023-05-16T17:15:50;16.31;98.41
75010;DHT22;63564;46.840;18.336;2023-05-16T17:18:51;16.31;98.51
75010;DHT22;63564;46.840;18.336;2023-05-16T17:21:51;16.27;98.42
75010;DHT22;63564;46.840;18.336;2023-05-16T17:24:52;16.29;98.53
75010;DHT22;63564;46.840;18.336;2023-05-16T17:27:53;16.25;98.61
75010;DHT22;63564;46.840;18.336;2023-05-16T17:30:53;16.22;98.59
75010;DHT22;63564;46.840;18.336;2023-05-16T17:33:54;16.20;98.71
75010;DHT22;63564;46.840;18.336;2023-05-16T17:36:54;16.14;98.78
75010;DHT22;63564;46.840;18.336;2023-05-16T17:39:55;16.11;99.00
75010;DHT22;63564;46.840;18.336;2023-05-16T17:42:56;16.11;98.94
75010;DHT22;63564;46.840;18.336;2023-05-16T17:45:56;16.07;99.06
75010;DHT22;63564;46.840;18.336;2023-05-16T17:48:56;16.10;98.98
75010;DHT22;63564;46.840;18.336;2023-05-16T17:51:57;16.10;98.79
75010;DHT22;63564;46.840;18.336;2023-05-16T17:54:58;16.08;98.93
75010;DHT22;63564;46.840;18.336;2023-05-16T17:57:58;16.07;99.07
75010;DHT22;63564;46.840;18.336;2023-05-16T18:00:59;16.06;99.05
75010;DHT22;63564;46.840;18.336;2023-05-16T18:04:00;16.01;99.24
75010;DHT22;63564;46.840;18.336;2023-05-16T18:07:00;16.00;99.24
75010;DHT22;63564;46.840;18.336;2023-05-16T18:10:01;15.99;99.17
75010;DHT22;63564;46.840;18.336;2023-05-16T18:13:01;16.06;99.11
75010;DHT22;63564;46.840;18.336;2023-05-16T18:16:02;16.08;99.11
75010;DHT22;63564;46.840;18.336;2023-05-16T18:19:03;16.01;99.19
75010;DHT22;63564;46.840;18.336;2023-05-16T18:22:04;16.00;99.28
75010;DHT22;63564;46.840;18.336;2023-05-16T18:25:08;15.97;99.51
75010;DHT22;63564;46.840;18.336;2023-05-16T18:28:10;15.94;99.55
75010;DHT22;63564;46.840;18.336;2023-05-16T18:31:11;16.00;99.28
75010;DHT22;63564;46.840;18.336;2023-05-16T18:34:11;16.03;99.16
75010;DHT22;63564;46.840;18.336;2023-05-16T18:37:12;16.01;99.24
75010;DHT22;63564;46.840;18.336;2023-05-16T18:40:12;16.00;99.15
75010;DHT22;63564;46.840;18.336;2023-05-16T18:43:13;16.10;98.98
75010;DHT22;63564;46.840;18.336;2023-05-16T18:46:13;15.99;99.23
75010;DHT22;63564;46.840;18.336;2023-05-16T18:49:14;15.97;99.31
75010;DHT22;63564;46.840;18.336;2023-05-16T18:52:15;15.91;99.54
75010;DHT22;63564;46.840;18.336;2023-05-16T18:55:15;15.91;99.69
75010;DHT22;63564;46.840;18.336;2023-05-16T18:58:16;15.91;99.69
75010;DHT22;63564;46.840;18.336;2023-05-16T19:01:18;15.91;99.82
75010;DHT22;63564;46.840;18.336;2023-05-16T19:04:21;15.87;99.99
75010;DHT22;63564;46.840;18.336;2023-05-16T19:07:22;15.85;99.99
75010;DHT22;63564;46.840;18.336;2023-05-16T19:10:23;15.86;99.99
75010;DHT22;63564;46.840;18.336;2023-05-16T19:13:24;15.85;99.99
75010;DHT22;63564;46.840;18.336;2023-05-16T19:16:24;15.79;99.99